sensor_id;sensor_type;location;lat;lon;timestamp;temperature;humidity
10249;DHT22;5169;50.560;9.714;2023-06-22T00:01:23;20.40;99.90
10249;DHT22;5169;50.560;9.714;2023-06-22T00:03:54;20.30;99.90
10249;DHT22;5169;50.560;9.714;2023-06-22T00:06:19;20.40;99.90
10249;DHT22;5169;50.560;9.714;2023-06-22T00:08:47;20.40;99.90
10249;DHT22;5169;50.560;9.714;2023-06-22T00:11:19;20.30;99.90
10249;DHT22;5169;50.560;9.714;2023-06-22T00:13:45;20.10;99.90
10249;DHT22;5169;50.560;9.714;2023-06-22T00:16:12;20.00;99.90
10249;DHT22;5169;50.560;9.714;2023-06-22T00:18:44;19.80;99.90
10249;DHT22;5169;50.560;9.714;2023-06-22T00:21:13;19.70;99.90
10249;DHT22;5169;50.560;9.714;2023-06-22T00:23:41;19.90;99.90
10249;DHT22;5169;50.560;9.714;2023-06-22T00:26:11;20.00;99.90
10249;DHT22;5169;50.560;9.714;2023-06-22T00:28:41;19.90;99.90
10249;DHT22;5169;50.560;9.714;2023-06-22T00:31:07;19.80;99.90
10249;DHT22;5169;50.560;9.714;2023-06-22T00:33:34;19.80;99.90
10249;DHT22;5169;50.560;9.714;2023-06-22T00:36:06;19.90;99.90
10249;DHT22;5169;50.560;9.714;2023-06-22T00:38:38;19.90;99.90
10249;DHT22;5169;50.560;9.714;2023-06-22T00:41:06;19.90;99.90
10249;DHT22;5169;50.560;9.714;2023-06-22T00:43:35;19.80;99.90
10249;DHT22;5169;50.560;9.714;2023-06-22T00:46:01;19.60;99.90
10249;DHT22;5169;50.560;9.714;2023-06-22T00:48:29;19.40;99.90
10249;DHT22;5169;50.560;9.714;2023-06-22T00:51:00;19.30;99.90
10249;DHT22;5169;50.560;9.714;2023-06-22T00:53:26;19.50;99.90
10249;DHT22;5169;50.560;9.714;2023-06-22T00:55:52;19.60;99.90
10249;DHT22;5169;50.560;9.714;2023-06-22T00:58:18;19.80;99.90
10249;DHT22;5169;50.560;9.714;2023-06-22T01:00:47;19.70;99.90
10249;DHT22;5169;50.560;9.714;2023-06-22T01:03:13;19.50;99.90
10249;DHT22;5169;50.560;9.714;2023-06-22T01:05:40;19.30;99.90
10249;DHT22;5169;50.560;9.714;2023-06-22T01:08:42;19.10;99.90
10249;DHT22;5169;50.560;9.714;2023-06-22T01:11:17;19.00;99.90
10249;DHT22;5169;50.560;9.714;2023-06-22T01:19:07;19.10;99.90
10249;DHT22;5169;50.560;9.714;2023-06-22T01:21:39;19.20;99.90
10249;DHT22;5169;50.560;9.714;2023-06-22T01:29:15;18.80;99.90
10249;DHT22;5169;50.560;9.714;2023-06-22T01:31:42;18.80;99.90
10249;DHT22;5169;50.560;9.714;2023-06-22T01:34:10;19.20;99.90
10249;DHT22;5169;50.560;9.714;2023-06-22T01:36:40;19.30;99.90
10249;DHT22;5169;50.560;9.714;2023-06-22T01:39:07;19.30;99.90
10249;DHT22;5169;50.560;9.714;2023-06-22T01:41:39;19.40;99.90
10249;DHT22;5169;50.560;9.714;2023-06-22T01:44:08;19.50;99.90
10249;DHT22;5169;50.560;9.714;2023-06-22T01:46:35;19.50;99.90
10249;DHT22;5169;50.560;9.714;2023-06-22T01:49:04;19.40;99.90
10249;DHT22;5169;50.560;9.714;2023-06-22T01:51:30;19.50;99.90
10249;DHT22;5169;50.560;9.714;2023-06-22T01:53:56;19.40;99.90
10249;DHT22;5169;50.560;9.714;2023-06-22T01:56:32;19.30;99.90
10249;DHT22;5169;50.560;9.714;2023-06-22T01:59:12;19.20;99.90
10249;DHT22;5169;50.560;9.714;2023-06-22T02:01:44;19.10;99.90
10249;DHT22;5169;50.560;9.714;2023-06-22T02:04:32;19.20;99.90
10249;DHT22;5169;50.560;9.714;2023-06-22T02:07:15;19.20;99.90
10249;DHT22;5169;50.560;9.714;2023-06-22T02:09:44;19.20;99.90
10249;DHT22;5169;50.560;9.714;2023-06-22T02:12:21;19.10;99.90
10249;DHT22;5169;50.560;9.714;2023-06-22T02:14:47;19.00;99.90
10249;DHT22;5169;50.560;9.714;2023-06-22T02:17:19;19.00;99.90
10249;DHT22;5169;50.560;9.714;2023-06-22T02:19:44;19.10;99.90
10249;DHT22;5169;50.560;9.714;2023-06-22T02:22:10;19.00;99.90
10249;DHT22;5169;50.560;9.714;2023-06-22T02:24:41;19.00;99.90
10249;DHT22;5169;50.560;9.714;2023-06-22T02:27:09;19.00;99.90
10249;DHT22;5169;50.560;9.714;2023-06-22T02:29:44;19.10;99.90
10249;DHT22;5169;50.560;9.714;2023-06-22T02:32:10;19.20;99.90
10249;DHT22;5169;50.560;9.714;2023-06-22T02:34:35;19.20;99.90
10249;DHT22;5169;50.560;9.714;2023-06-22T02:37:07;19.20;99.90
10249;DHT22;5169;50.560;9.714;2023-06-22T02:39:35;19.30;99.90
10249;DHT22;5169;50.560;9.714;2023-06-22T02:42:10;19.20;99.90
10249;DHT22;5169;50.560;9.714;2023-06-22T02:44:43;19.10;99.90
10249;DHT22;5169;50.560;9.714;2023-06-22T02:47:09;19.10;99.90
10249;DHT22;5169;50.560;9.714;2023-06-22T02:49:35;19.10;99.90
10249;DHT22;5169;50.560;9.714;2023-06-22T02:52:00;19.00;99.90
10249;DHT22;5169;50.560;9.714;2023-06-22T02:54:28;18.80;99.90
10249;DHT22;5169;50.560;9.714;2023-06-22T02:56:53;18.70;99.90
10249;DHT22;5169;50.560;9.714;2023-06-22T02:59:19;18.60;99.90
10249;DHT22;5169;50.560;9.714;2023-06-22T03:01:55;18.60;99.90
10249;DHT22;5169;50.560;9.714;2023-06-22T03:04:21;18.50;99.90
10249;DHT22;5169;50.560;9.714;2023-06-22T03:06:46;18.50;99.90
10249;DHT22;5169;50.560;9.714;2023-06-22T03:09:17;18.50;99.90
10249;DHT22;5169;50.560;9.714;2023-06-22T03:11:43;18.40;99.90
10249;DHT22;5169;50.560;9.714;2023-06-22T03:14:11;18.40;99.90
10249;DHT22;5169;50.560;9.714;2023-06-22T03:16:42;18.50;99.90
10249;DHT22;5169;50.560;9.714;2023-06-22T03:19:07;18.50;99.90
10249;DHT22;5169;50.560;9.714;2023-06-22T03:21:33;18.40;99.90
10249;DHT22;5169;50.560;9.714;2023-06-22T03:23:58;18.50;99.90
10249;DHT22;5169;50.560;9.714;2023-06-22T03:26:24;18.60;99.90
10249;DHT22;5169;50.560;9.714;2023-06-22T03:28:55;18.70;99.90
10249;DHT22;5169;50.560;9.714;2023-06-22T03:31:21;18.70;99.90
10249;DHT22;5169;50.560;9.714;2023-06-22T03:33:47;18.80;99.90
10249;DHT22;5169;50.560;9.714;2023-06-22T03:36:17;18.80;99.90
10249;DHT22;5169;50.560;9.714;2023-06-22T03:38:47;18.80;99.90
10249;DHT22;5169;50.560;9.714;2023-06-22T03:41:18;18.90;99.90
10249;DHT22;5169;50.560;9.714;2023-06-22T03:43:44;18.90;99.90
10249;DHT22;5169;50.560;9.714;2023-06-22T03:46:10;18.90;99.90
10249;DHT22;5169;50.560;9.714;2023-06-22T03:48:36;18.90;99.90
10249;DHT22;5169;50.560;9.714;2023-06-22T03:51:02;18.90;99.90
10249;DHT22;5169;50.560;9.714;2023-06-22T03:53:35;18.90;99.90
10249;DHT22;5169;50.560;9.714;2023-06-22T03:56:00;18.90;99.90
10249;DHT22;5169;50.560;9.714;2023-06-22T03:58:26;19.00;99.90
10249;DHT22;5169;50.560;9.714;2023-06-22T04:00:58;18.90;99.90
10249;DHT22;5169;50.560;9.714;2023-06-22T04:03:25;18.90;99.90
10249;DHT22;5169;50.560;9.714;2023-06-22T04:05:51;18.90;99.90
10249;DHT22;5169;50.560;9.714;2023-06-22T04:08:20;18.90;99.90
10249;DHT22;5169;50.560;9.714;2023-06-22T04:10:46;19.00;99.90
10249;DHT22;5169;50.560;9.714;2023-06-22T04:13:14;19.00;99.90
10249;DHT22;5169;50.560;9.714;2023-06-22T04:15:47;19.10;99.90
10249;DHT22;5169;50.560;9.714;2023-06-22T04:18:13;19.20;99.90
10249;DHT22;5169;50.560;9.714;2023-06-22T04:20:39;19.30;99.90
10249;DHT22;5169;50.560;9.714;2023-06-22T04:23:12;19.30;99.90
10249;DHT22;5169;50.560;9.714;2023-06-22T04:25:39;19.40;99.90
10249;DHT22;5169;50.560;9.714;2023-06-22T04:28:12;19.30;99.90
10249;DHT22;5169;50.560;9.714;2023-06-22T04:30:40;19.30;99.90
10249;DHT22;5169;50.560;9.714;2023-06-22T04:33:15;19.20;99.90
10249;DHT22;5169;50.560;9.714;2023-06-22T04:35:47;19.30;99.90
10249;DHT22;5169;50.560;9.714;2023-06-22T04:38:16;19.20;99.90
10249;DHT22;5169;50.560;9.714;2023-06-22T04:40:46;19.30;99.90
10249;DHT22;5169;50.560;9.714;2023-06-22T04:43:12;19.30;99.90
10249;DHT22;5169;50.560;9.714;2023-06-22T04:45:37;19.40;99.90
10249;DHT22;5169;50.560;9.714;2023-06-22T04:48:04;19.60;99.90
10249;DHT22;5169;50.560;9.714;2023-06-22T04:50:39;19.60;99.90
10249;DHT22;5169;50.560;9.714;2023-06-22T04:53:09;19.60;99.90
10249;DHT22;5169;50.560;9.714;2023-06-22T04:55:37;19.60;99.90
10249;DHT22;5169;50.560;9.714;2023-06-22T04:58:13;19.70;99.90
10249;DHT22;5169;50.560;9.714;2023-06-22T05:00:38;19.70;99.90
10249;DHT22;5169;50.560;9.714;2023-06-22T05:03:04;19.80;99.90
10249;DHT22;5169;50.560;9.714;2023-06-22T05:05:35;19.90;99.90
10249;DHT22;5169;50.560;9.714;2023-06-22T05:08:01;20.00;99.90
10249;DHT22;5169;50.560;9.714;2023-06-22T05:10:26;20.00;99.90
10249;DHT22;5169;50.560;9.714;2023-06-22T05:12:52;20.10;99.90
10249;DHT22;5169;50.560;9.714;2023-06-22T05:15:25;20.20;99.90
10249;DHT22;5169;50.560;9.714;2023-06-22T05:17:56;20.30;99.90
10249;DHT22;5169;50.560;9.714;2023-06-22T05:20:23;20.50;99.90
10249;DHT22;5169;50.560;9.714;2023-06-22T05:22:49;20.70;99.90
10249;DHT22;5169;50.560;9.714;2023-06-22T05:25:14;20.70;99.90
10249;DHT22;5169;50.560;9.714;2023-06-22T05:27:40;20.70;99.90
10249;DHT22;5169;50.560;9.714;2023-06-22T05:30:12;20.70;99.90
10249;DHT22;5169;50.560;9.714;2023-06-22T05:32:37;20.60;99.90
10249;DHT22;5169;50.560;9.714;2023-06-22T05:35:04;20.80;99.90
10249;DHT22;5169;50.560;9.714;2023-06-22T05:37:33;21.00;99.90
10249;DHT22;5169;50.560;9.714;2023-06-22T05:39:59;21.30;99.90
10249;DHT22;5169;50.560;9.714;2023-06-22T05:42:24;21.00;99.90
10249;DHT22;5169;50.560;9.714;2023-06-22T05:44:52;20.80;99.90
10249;DHT22;5169;50.560;9.714;2023-06-22T05:47:24;20.90;99.90
10249;DHT22;5169;50.560;9.714;2023-06-22T05:49:49;21.20;99.90
10249;DHT22;5169;50.560;9.714;2023-06-22T05:52:22;21.40;99.90
10249;DHT22;5169;50.560;9.714;2023-06-22T05:54:47;21.30;99.90
10249;DHT22;5169;50.560;9.714;2023-06-22T05:57:15;21.60;99.90
10249;DHT22;5169;50.560;9.714;2023-06-22T05:59:40;21.80;99.90
10249;DHT22;5169;50.560;9.714;2023-06-22T06:02:15;22.10;99.90
10249;DHT22;5169;50.560;9.714;2023-06-22T06:04:40;22.40;99.90
10249;DHT22;5169;50.560;9.714;2023-06-22T06:07:12;22.60;99.90
10249;DHT22;5169;50.560;9.714;2023-06-22T06:09:38;22.60;99.90
10249;DHT22;5169;50.560;9.714;2023-06-22T06:12:04;22.80;99.90
10249;DHT22;5169;50.560;9.714;2023-06-22T06:14:29;23.00;99.90
10249;DHT22;5169;50.560;9.714;2023-06-22T06:16:58;23.40;99.90
10249;DHT22;5169;50.560;9.714;2023-06-22T06:19:24;23.50;99.90
10249;DHT22;5169;50.560;9.714;2023-06-22T06:21:49;23.80;99.90
10249;DHT22;5169;50.560;9.714;2023-06-22T06:24:15;24.10;99.90
10249;DHT22;5169;50.560;9.714;2023-06-22T06:26:41;24.20;99.90
10249;DHT22;5169;50.560;9.714;2023-06-22T06:29:06;24.20;99.90
10249;DHT22;5169;50.560;9.714;2023-06-22T06:31:35;24.30;99.90
10249;DHT22;5169;50.560;9.714;2023-06-22T06:34:03;24.00;99.90
10249;DHT22;5169;50.560;9.714;2023-06-22T06:36:29;24.40;99.90
10249;DHT22;5169;50.560;9.714;2023-06-22T06:38:54;25.10;99.90
10249;DHT22;5169;50.560;9.714;2023-06-22T06:41:26;25.40;99.90
10249;DHT22;5169;50.560;9.714;2023-06-22T06:43:52;25.20;99.90
10249;DHT22;5169;50.560;9.714;2023-06-22T06:46:17;25.50;99.90
10249;DHT22;5169;50.560;9.714;2023-06-22T06:48:50;25.50;99.90
10249;DHT22;5169;50.560;9.714;2023-06-22T06:51:16;25.50;99.90
10249;DHT22;5169;50.560;9.714;2023-06-22T06:53:41;25.30;99.90
10249;DHT22;5169;50.560;9.714;2023-06-22T06:56:07;25.20;99.90
10249;DHT22;5169;50.560;9.714;2023-06-22T06:58:42;25.20;99.90
10249;DHT22;5169;50.560;9.714;2023-06-22T07:01:16;25.10;99.90
10249;DHT22;5169;50.560;9.714;2023-06-22T07:03:42;25.00;99.90
10249;DHT22;5169;50.560;9.714;2023-06-22T07:06:11;25.20;99.90
10249;DHT22;5169;50.560;9.714;2023-06-22T07:08:37;25.20;99.90
10249;DHT22;5169;50.560;9.714;2023-06-22T07:11:05;25.30;99.90
10249;DHT22;5169;50.560;9.714;2023-06-22T07:13:31;25.30;99.90
10249;DHT22;5169;50.560;9.714;2023-06-22T07:16:00;25.30;99.90
10249;DHT22;5169;50.560;9.714;2023-06-22T07:18:25;25.40;99.90
10249;DHT22;5169;50.560;9.714;2023-06-22T07:20:52;25.60;99.90
10249;DHT22;5169;50.560;9.714;2023-06-22T07:23:25;25.80;99.90
10249;DHT22;5169;50.560;9.714;2023-06-22T07:25:50;25.80;99.90
10249;DHT22;5169;50.560;9.714;2023-06-22T07:28:16;25.90;99.90
10249;DHT22;5169;50.560;9.714;2023-06-22T07:30:42;25.90;99.90
10249;DHT22;5169;50.560;9.714;2023-06-22T07:33:07;26.10;99.90
10249;DHT22;5169;50.560;9.714;2023-06-22T07:35:40;26.10;99.90
10249;DHT22;5169;50.560;9.714;2023-06-22T07:38:05;26.40;99.90
10249;DHT22;5169;50.560;9.714;2023-06-22T07:40:40;26.50;99.90
10249;DHT22;5169;50.560;9.714;2023-06-22T07:43:14;26.60;99.90
10249;DHT22;5169;50.560;9.714;2023-06-22T07:45:40;26.50;99.90
10249;DHT22;5169;50.560;9.714;2023-06-22T07:48:07;26.60;99.90
10249;DHT22;5169;50.560;9.714;2023-06-22T07:50:36;26.80;99.90
10249;DHT22;5169;50.560;9.714;2023-06-22T07:53:01;27.00;99.90
10249;DHT22;5169;50.560;9.714;2023-06-22T07:55:29;27.10;99.90
10249;DHT22;5169;50.560;9.714;2023-06-22T07:57:55;27.10;99.90
10249;DHT22;5169;50.560;9.714;2023-06-22T08:00:29;27.00;99.90
10249;DHT22;5169;50.560;9.714;2023-06-22T08:02:54;27.00;99.90
10249;DHT22;5169;50.560;9.714;2023-06-22T08:05:23;27.20;99.90
10249;DHT22;5169;50.560;9.714;2023-06-22T08:07:51;27.30;99.90
10249;DHT22;5169;50.560;9.714;2023-06-22T08:10:17;27.40;99.90
10249;DHT22;5169;50.560;9.714;2023-06-22T08:12:43;27.40;99.90
10249;DHT22;5169;50.560;9.714;2023-06-22T08:15:26;27.60;99.90
10249;DHT22;5169;50.560;9.714;2023-06-22T08:17:59;27.70;99.90
10249;DHT22;5169;50.560;9.714;2023-06-22T08:20:27;28.00;99.90
10249;DHT22;5169;50.560;9.714;2023-06-22T08:22:54;28.20;99.90
10249;DHT22;5169;50.560;9.714;2023-06-22T08:25:37;28.20;99.90
10249;DHT22;5169;50.560;9.714;2023-06-22T08:28:06;28.20;99.90
10249;DHT22;5169;50.560;9.714;2023-06-22T08:30:35;28.40;99.90
10249;DHT22;5169;50.560;9.714;2023-06-22T08:33:06;28.30;99.90
10249;DHT22;5169;50.560;9.714;2023-06-22T08:35:31;28.40;99.90
10249;DHT22;5169;50.560;9.714;2023-06-22T08:38:00;28.40;99.90
10249;DHT22;5169;50.560;9.714;2023-06-22T08:40:27;28.50;99.90
10249;DHT22;5169;50.560;9.714;2023-06-22T08:42:55;28.40;99.90
10249;DHT22;5169;50.560;9.714;2023-06-22T08:45:26;28.30;99.90
10249;DHT22;5169;50.560;9.714;2023-06-22T08:47:54;28.40;99.90
10249;DHT22;5169;50.560;9.714;2023-06-22T08:50:26;28.50;99.90
10249;DHT22;5169;50.560;9.714;2023-06-22T08:53:01;28.70;99.90
10249;DHT22;5169;50.560;9.714;2023-06-22T08:55:27;28.80;99.90
10249;DHT22;5169;50.560;9.714;2023-06-22T08:57:52;28.90;99.90
10249;DHT22;5169;50.560;9.714;2023-06-22T09:00:18;28.70;99.90
10249;DHT22;5169;50.560;9.714;2023-06-22T09:02:48;29.10;99.90
10249;DHT22;5169;50.560;9.714;2023-06-22T09:05:14;29.20;99.90
10249;DHT22;5169;50.560;9.714;2023-06-22T09:07:40;29.50;99.90
10249;DHT22;5169;50.560;9.714;2023-06-22T09:10:11;29.70;99.30
10249;DHT22;5169;50.560;9.714;2023-06-22T09:12:37;29.80;97.70
10249;DHT22;5169;50.560;9.714;2023-06-22T09:15:03;30.10;97.80
10249;DHT22;5169;50.560;9.714;2023-06-22T09:17:29;30.00;98.10
10249;DHT22;5169;50.560;9.714;2023-06-22T09:19:54;30.30;97.30
10249;DHT22;5169;50.560;9.714;2023-06-22T09:22:23;30.40;96.00
10249;DHT22;5169;50.560;9.714;2023-06-22T09:24:55;30.30;96.40
10249;DHT22;5169;50.560;9.714;2023-06-22T09:27:28;30.40;95.90
10249;DHT22;5169;50.560;9.714;2023-06-22T09:29:54;30.10;96.00
10249;DHT22;5169;50.560;9.714;2023-06-22T09:32:23;30.30;96.30
10249;DHT22;5169;50.560;9.714;2023-06-22T09:34:53;30.60;96.10
10249;DHT22;5169;50.560;9.714;2023-06-22T09:37:26;30.50;96.70
10249;DHT22;5169;50.560;9.714;2023-06-22T09:39:52;30.20;96.20
10249;DHT22;5169;50.560;9.714;2023-06-22T09:42:25;30.30;96.40
10249;DHT22;5169;50.560;9.714;2023-06-22T09:44:53;30.60;96.60
10249;DHT22;5169;50.560;9.714;2023-06-22T09:47:18;30.70;94.80
10249;DHT22;5169;50.560;9.714;2023-06-22T09:49:50;30.60;94.50
10249;DHT22;5169;50.560;9.714;2023-06-22T09:52:16;30.70;95.20
10249;DHT22;5169;50.560;9.714;2023-06-22T09:54:41;30.80;95.20
10249;DHT22;5169;50.560;9.714;2023-06-22T09:57:15;31.20;93.60
10249;DHT22;5169;50.560;9.714;2023-06-22T09:59:41;31.00;94.50
10249;DHT22;5169;50.560;9.714;2023-06-22T10:02:07;31.20;94.90
10249;DHT22;5169;50.560;9.714;2023-06-22T10:04:36;31.50;93.80
10249;DHT22;5169;50.560;9.714;2023-06-22T10:07:02;31.90;93.60
10249;DHT22;5169;50.560;9.714;2023-06-22T10:09:28;32.10;93.00
10249;DHT22;5169;50.560;9.714;2023-06-22T10:11:54;32.30;92.70
10249;DHT22;5169;50.560;9.714;2023-06-22T10:14:19;32.50;91.10
10249;DHT22;5169;50.560;9.714;2023-06-22T10:16:48;32.40;91.40
10249;DHT22;5169;50.560;9.714;2023-06-22T10:19:16;32.60;91.00
10249;DHT22;5169;50.560;9.714;2023-06-22T10:21:42;32.50;90.00
10249;DHT22;5169;50.560;9.714;2023-06-22T10:24:07;32.40;90.40
10249;DHT22;5169;50.560;9.714;2023-06-22T10:26:37;32.50;90.10
10249;DHT22;5169;50.560;9.714;2023-06-22T10:29:03;33.10;88.90
10249;DHT22;5169;50.560;9.714;2023-06-22T10:31:30;34.00;89.80
10249;DHT22;5169;50.560;9.714;2023-06-22T10:33:56;34.50;85.30
10249;DHT22;5169;50.560;9.714;2023-06-22T10:36:24;35.00;82.50
10249;DHT22;5169;50.560;9.714;2023-06-22T10:38:50;35.70;81.80
10249;DHT22;5169;50.560;9.714;2023-06-22T10:41:16;35.90;76.90
10249;DHT22;5169;50.560;9.714;2023-06-22T10:43:42;36.50;76.20
10249;DHT22;5169;50.560;9.714;2023-06-22T10:46:07;36.30;75.50
10249;DHT22;5169;50.560;9.714;2023-06-22T10:48:36;36.30;75.00
10249;DHT22;5169;50.560;9.714;2023-06-22T10:51:02;35.20;75.70
10249;DHT22;5169;50.560;9.714;2023-06-22T10:53:27;34.70;77.30
10249;DHT22;5169;50.560;9.714;2023-06-22T10:55:53;34.30;78.70
10249;DHT22;5169;50.560;9.714;2023-06-22T10:58:19;34.70;77.80
10249;DHT22;5169;50.560;9.714;2023-06-22T11:00:51;35.50;75.50
10249;DHT22;5169;50.560;9.714;2023-06-22T11:03:17;36.40;75.20
10249;DHT22;5169;50.560;9.714;2023-06-22T11:05:42;37.60;71.10
10249;DHT22;5169;50.560;9.714;2023-06-22T11:08:08;39.00;69.30
10249;DHT22;5169;50.560;9.714;2023-06-22T11:10:37;39.40;64.10
10249;DHT22;5169;50.560;9.714;2023-06-22T11:13:02;39.80;62.00
10249;DHT22;5169;50.560;9.714;2023-06-22T11:15:29;40.10;60.40
10249;DHT22;5169;50.560;9.714;2023-06-22T11:17:55;39.90;59.30
10249;DHT22;5169;50.560;9.714;2023-06-22T11:20:20;39.70;58.30
10249;DHT22;5169;50.560;9.714;2023-06-22T11:22:49;38.90;58.00
10249;DHT22;5169;50.560;9.714;2023-06-22T11:25:14;38.00;59.70
10249;DHT22;5169;50.560;9.714;2023-06-22T11:27:40;37.40;59.60
10249;DHT22;5169;50.560;9.714;2023-06-22T11:30:06;36.60;61.60
10249;DHT22;5169;50.560;9.714;2023-06-22T11:32:32;36.30;64.70
10249;DHT22;5169;50.560;9.714;2023-06-22T11:35:05;36.40;62.30
10249;DHT22;5169;50.560;9.714;2023-06-22T11:37:31;36.00;64.00
10249;DHT22;5169;50.560;9.714;2023-06-22T11:40:02;36.20;63.40
10249;DHT22;5169;50.560;9.714;2023-06-22T11:42:40;35.60;64.70
10249;DHT22;5169;50.560;9.714;2023-06-22T11:45:08;34.60;65.20
10249;DHT22;5169;50.560;9.714;2023-06-22T11:47:43;34.20;68.40
10249;DHT22;5169;50.560;9.714;2023-06-22T11:50:12;34.20;69.00
10249;DHT22;5169;50.560;9.714;2023-06-22T11:52:38;35.50;67.10
10249;DHT22;5169;50.560;9.714;2023-06-22T11:55:04;36.80;63.90
10249;DHT22;5169;50.560;9.714;2023-06-22T11:57:53;37.50;59.90
10249;DHT22;5169;50.560;9.714;2023-06-22T12:00:29;37.80;59.00
10249;DHT22;5169;50.560;9.714;2023-06-22T12:02:55;37.10;58.70
10249;DHT22;5169;50.560;9.714;2023-06-22T12:05:27;35.90;60.90
10249;DHT22;5169;50.560;9.714;2023-06-22T12:07:53;35.60;64.70
10249;DHT22;5169;50.560;9.714;2023-06-22T12:10:19;35.50;63.90
10249;DHT22;5169;50.560;9.714;2023-06-22T12:12:44;35.40;63.00
10249;DHT22;5169;50.560;9.714;2023-06-22T12:15:13;34.80;64.20
10249;DHT22;5169;50.560;9.714;2023-06-22T12:17:39;34.70;65.90
10249;DHT22;5169;50.560;9.714;2023-06-22T12:20:06;34.40;67.20
10249;DHT22;5169;50.560;9.714;2023-06-22T12:22:41;34.10;66.70
10249;DHT22;5169;50.560;9.714;2023-06-22T12:25:07;33.70;68.20
10249;DHT22;5169;50.560;9.714;2023-06-22T12:27:39;33.60;69.40
10249;DHT22;5169;50.560;9.714;2023-06-22T12:30:05;33.20;69.90
10249;DHT22;5169;50.560;9.714;2023-06-22T12:32:31;32.90;70.10
10249;DHT22;5169;50.560;9.714;2023-06-22T12:35:03;32.80;73.70
10249;DHT22;5169;50.560;9.714;2023-06-22T12:37:28;33.20;73.30
10249;DHT22;5169;50.560;9.714;2023-06-22T12:39:54;33.60;71.80
10249;DHT22;5169;50.560;9.714;2023-06-22T12:42:26;33.70;70.20
10249;DHT22;5169;50.560;9.714;2023-06-22T12:44:53;33.60;71.50
10249;DHT22;5169;50.560;9.714;2023-06-22T12:47:27;33.30;72.10
10249;DHT22;5169;50.560;9.714;2023-06-22T12:49:52;33.00;72.20
10249;DHT22;5169;50.560;9.714;2023-06-22T12:52:18;32.80;74.90
10249;DHT22;5169;50.560;9.714;2023-06-22T12:54:44;32.90;75.50
10249;DHT22;5169;50.560;9.714;2023-06-22T12:57:17;32.80;76.80
10249;DHT22;5169;50.560;9.714;2023-06-22T12:59:48;32.70;73.20
10249;DHT22;5169;50.560;9.714;2023-06-22T13:02:14;32.20;74.60
10249;DHT22;5169;50.560;9.714;2023-06-22T13:04:39;32.10;76.40
10249;DHT22;5169;50.560;9.714;2023-06-22T13:07:05;32.00;76.70
10249;DHT22;5169;50.560;9.714;2023-06-22T13:09:31;32.20;78.60
10249;DHT22;5169;50.560;9.714;2023-06-22T13:11:56;32.20;77.20
10249;DHT22;5169;50.560;9.714;2023-06-22T13:14:25;32.10;77.70
10249;DHT22;5169;50.560;9.714;2023-06-22T13:16:50;32.10;78.10
10249;DHT22;5169;50.560;9.714;2023-06-22T13:19:16;32.20;78.00
10249;DHT22;5169;50.560;9.714;2023-06-22T13:21:41;32.20;76.80
10249;DHT22;5169;50.560;9.714;2023-06-22T13:24:07;32.10;77.30
10249;DHT22;5169;50.560;9.714;2023-06-22T13:26:40;32.10;77.70
10249;DHT22;5169;50.560;9.714;2023-06-22T13:29:06;31.80;79.30
10249;DHT22;5169;50.560;9.714;2023-06-22T13:31:39;31.80;79.00
10249;DHT22;5169;50.560;9.714;2023-06-22T13:34:05;31.90;78.90
10249;DHT22;5169;50.560;9.714;2023-06-22T13:36:32;32.00;80.20
10249;DHT22;5169;50.560;9.714;2023-06-22T13:39:00;32.30;80.90
10249;DHT22;5169;50.560;9.714;2023-06-22T13:41:29;32.40;77.90
10249;DHT22;5169;50.560;9.714;2023-06-22T13:44:06;32.30;78.50
10249;DHT22;5169;50.560;9.714;2023-06-22T13:46:38;32.40;77.70
10249;DHT22;5169;50.560;9.714;2023-06-22T13:49:06;32.40;79.00
10249;DHT22;5169;50.560;9.714;2023-06-22T13:51:39;32.30;78.70
10249;DHT22;5169;50.560;9.714;2023-06-22T13:54:05;32.30;78.60
10249;DHT22;5169;50.560;9.714;2023-06-22T13:56:32;32.20;79.70
10249;DHT22;5169;50.560;9.714;2023-06-22T13:59:07;32.30;79.20
10249;DHT22;5169;50.560;9.714;2023-06-22T14:01:38;32.50;80.40
10249;DHT22;5169;50.560;9.714;2023-06-22T14:04:09;32.40;77.60
10249;DHT22;5169;50.560;9.714;2023-06-22T14:06:41;32.20;77.30
10249;DHT22;5169;50.560;9.714;2023-06-22T14:09:07;32.00;77.80
10249;DHT22;5169;50.560;9.714;2023-06-22T14:11:32;31.80;78.30
10249;DHT22;5169;50.560;9.714;2023-06-22T14:14:01;31.80;77.80
10249;DHT22;5169;50.560;9.714;2023-06-22T14:16:32;31.80;79.30
10249;DHT22;5169;50.560;9.714;2023-06-22T14:19:07;31.90;79.90
10249;DHT22;5169;50.560;9.714;2023-06-22T14:21:33;32.20;79.00
10249;DHT22;5169;50.560;9.714;2023-06-22T14:24:02;32.10;78.70
10249;DHT22;5169;50.560;9.714;2023-06-22T14:26:27;32.10;78.80
10249;DHT22;5169;50.560;9.714;2023-06-22T14:28:53;32.10;78.70
10249;DHT22;5169;50.560;9.714;2023-06-22T14:31:19;31.90;78.60
10249;DHT22;5169;50.560;9.714;2023-06-22T14:33:54;31.90;78.20
10249;DHT22;5169;50.560;9.714;2023-06-22T14:36:19;32.00;80.20
10249;DHT22;5169;50.560;9.714;2023-06-22T14:38:50;31.90;79.80
10249;DHT22;5169;50.560;9.714;2023-06-22T14:41:16;31.90;80.50
10249;DHT22;5169;50.560;9.714;2023-06-22T14:43:50;31.70;80.80
10249;DHT22;5169;50.560;9.714;2023-06-22T14:46:19;31.60;82.00
10249;DHT22;5169;50.560;9.714;2023-06-22T14:48:53;31.60;80.90
10249;DHT22;5169;50.560;9.714;2023-06-22T14:51:19;31.60;81.60
10249;DHT22;5169;50.560;9.714;2023-06-22T14:53:45;31.60;80.10
10249;DHT22;5169;50.560;9.714;2023-06-22T14:56:11;31.50;78.30
10249;DHT22;5169;50.560;9.714;2023-06-22T14:58:38;31.30;82.20
10249;DHT22;5169;50.560;9.714;2023-06-22T15:01:16;31.20;82.70
10249;DHT22;5169;50.560;9.714;2023-06-22T15:03:47;31.20;83.50
10249;DHT22;5169;50.560;9.714;2023-06-22T15:06:15;31.30;82.70
10249;DHT22;5169;50.560;9.714;2023-06-22T15:08:43;31.50;81.60
10249;DHT22;5169;50.560;9.714;2023-06-22T15:11:10;31.50;79.90
10249;DHT22;5169;50.560;9.714;2023-06-22T15:13:45;31.70;78.50
10249;DHT22;5169;50.560;9.714;2023-06-22T15:16:11;31.70;78.60
10249;DHT22;5169;50.560;9.714;2023-06-22T15:18:37;31.90;78.70
10249;DHT22;5169;50.560;9.714;2023-06-22T15:21:09;31.90;78.20
10249;DHT22;5169;50.560;9.714;2023-06-22T15:23:35;31.90;78.20
10249;DHT22;5169;50.560;9.714;2023-06-22T15:26:03;32.10;77.70
10249;DHT22;5169;50.560;9.714;2023-06-22T15:28:35;31.90;76.20
10249;DHT22;5169;50.560;9.714;2023-06-22T15:31:13;31.60;76.30
10249;DHT22;5169;50.560;9.714;2023-06-22T15:33:38;31.40;77.50
10249;DHT22;5169;50.560;9.714;2023-06-22T15:36:08;31.20;77.80
10249;DHT22;5169;50.560;9.714;2023-06-22T15:38:34;31.10;79.30
10249;DHT22;5169;50.560;9.714;2023-06-22T15:40:59;31.00;78.70
10249;DHT22;5169;50.560;9.714;2023-06-22T15:43:25;30.90;79.30
10249;DHT22;5169;50.560;9.714;2023-06-22T15:45:51;30.80;79.90
10249;DHT22;5169;50.560;9.714;2023-06-22T15:48:20;30.80;81.20
10249;DHT22;5169;50.560;9.714;2023-06-22T15:50:46;30.70;80.70
10249;DHT22;5169;50.560;9.714;2023-06-22T15:53:12;30.60;80.70
10249;DHT22;5169;50.560;9.714;2023-06-22T15:55:40;30.60;80.40
10249;DHT22;5169;50.560;9.714;2023-06-22T15:58:14;30.50;80.30
10249;DHT22;5169;50.560;9.714;2023-06-22T16:00:43;30.50;80.50
10249;DHT22;5169;50.560;9.714;2023-06-22T16:03:10;30.50;80.50